Catalina Spirit — WDJ3865 — position and weather

sailwx.info

Track history (hours):
 
Tides and Currents Weather Stations Pressure Air Temp Water Temp Dewpoint Dewpoint Depression Visibility Wind Speed Wind Dir Waves Ship Positions

Catalina Spirit

Owner: Catalina Classic Cruises, Inc, San Diego, CA. More information available from US FCC via Universal Licensing System and Coast Guard Vessel Documentation Center.

Last reported at 2017-Sep-20 01:45 UTC. Time now 2017-Sep-21 12:11 UTC.
Position N 33°46' W 118°15'.

Length 23 m.

Type: Passenger vessel. MMSI: 366889830.

Date/timePositionNaut miles runAvg speedWind from/ knotsBaromVisibWave heightAir tempDewpointWater temp
2017-Sep-20 01:45N 33°46' W 118°15'1 3.9
2017-Sep-20 01:28N 33°45' W 118°16'3 5.8
2017-Sep-20 01:00N 33°43' W 118°15'22 5.9
2017-Sep-19 21:17N 33°21' W 118°19'0 0.0
2017-Sep-19 21:00N 33°21' W 118°19'0 0.1
2017-Sep-19 20:16N 33°21' W 118°19'0 0.6
2017-Sep-19 19:55N 33°21' W 118°19'0 0.1
2017-Sep-19 19:27N 33°21' W 118°19'0 0.3
2017-Sep-19 18:57N 33°21' W 118°19'0 0.2
2017-Sep-19 18:16N 33°21' W 118°19'0 0.1
2017-Sep-19 17:29N 33°21' W 118°19'0 0.0
2017-Sep-19 16:59N 33°21' W 118°19'0 0.1
2017-Sep-19 16:21N 33°21' W 118°19'1 0.3
2017-Sep-19 14:43N 33°21' W 118°20'0 0.0
2017-Sep-19 14:04N 33°21' W 118°20'0 0.1
2017-Sep-19 13:57N 33°21' W 118°20'0 0.0
2017-Sep-19 12:32N 33°21' W 118°20'0 0.0
2017-Sep-19 12:25N 33°21' W 118°20'0 0.0
2017-Sep-19 11:56N 33°21' W 118°20'0 0.0
2017-Sep-19 11:29N 33°21' W 118°20'0 0.0
2017-Sep-19 10:52N 33°21' W 118°20'0 0.0
2017-Sep-19 10:01N 33°21' W 118°20'0 0.1
2017-Sep-19 09:55N 33°21' W 118°20'0 0.0
2017-Sep-19 09:24N 33°21' W 118°20'0 0.0
2017-Sep-19 08:35N 33°21' W 118°20'0 0.0
2017-Sep-19 08:15N 33°21' W 118°20'0 0.0
2017-Sep-19 07:53N 33°21' W 118°20'0 0.0
2017-Sep-19 07:19N 33°21' W 118°20'0 0.0
2017-Sep-19 06:56N 33°21' W 118°20'0 0.0
2017-Sep-19 06:30N 33°21' W 118°20'0 0.0
2017-Sep-19 06:00N 33°21' W 118°20'0 0.0
2017-Sep-19 03:34N 33°21' W 118°20'0 0.0
2017-Sep-19 03:28N 33°21' W 118°20'0 0.0
2017-Sep-19 02:48N 33°21' W 118°20'0 0.0
2017-Sep-19 02:25N 33°21' W 118°20'0 0.0
2017-Sep-19 01:57N 33°21' W 118°20'0 0.0
2017-Sep-19 01:26N 33°21' W 118°20'0 0.0
2017-Sep-19 00:55N 33°21' W 118°20'0 0.0
2017-Sep-18 23:51N 33°21' W 118°20'1 1.0
2017-Sep-18 23:21N 33°21' W 118°19'0 0.2
2017-Sep-18 22:46N 33°21' W 118°19'0 0.2
2017-Sep-18 21:59N 33°21' W 118°19'0 0.9
2017-Sep-18 21:28N 33°21' W 118°19'1 1.0
2017-Sep-18 20:56N 33°21' W 118°19'0 0.3
2017-Sep-18 20:20N 33°21' W 118°19'0 0.0
2017-Sep-18 19:24N 33°21' W 118°19'0 0.4
2017-Sep-18 18:51N 33°21' W 118°19'0 0.0
2017-Sep-18 17:55N 33°21' W 118°19'0 0.0
2017-Sep-18 17:24N 33°21' W 118°19'0 0.1
2017-Sep-18 16:46N 33°21' W 118°19'16 9.1
2017-Sep-18 15:04N 33°36' W 118°16'114.8
2017-Sep-18 14:59N 33°38' W 118°16'711.7
2017-Sep-18 14:23N 33°44' W 118°17'2 5.4
2017-Sep-18 14:00N 33°46' W 118°15'  
2017-Sep-13 01:09N 33°42' W 118°15'213.6
2017-Sep-13 01:00N 33°40' W 118°15'814.0
2017-Sep-13 00:24N 33°32' W 118°17'513.6
2017-Sep-13 00:00N 33°26' W 118°18'6 3.1
2017-Sep-12 22:08N 33°21' W 118°19'0 0.4
2017-Sep-12 22:01N 33°21' W 118°19'0 0.3
2017-Sep-12 21:13N 33°21' W 118°19'0 0.9
2017-Sep-12 20:54N 33°21' W 118°19'0 0.5
2017-Sep-12 20:15N 33°21' W 118°19'0 1.0
2017-Sep-12 19:58N 33°21' W 118°19'0 0.8
2017-Sep-12 19:29N 33°21' W 118°19'0 0.8
2017-Sep-12 18:57N 33°21' W 118°19'0 0.3
2017-Sep-12 18:29N 33°21' W 118°19'0 0.0
2017-Sep-12 17:58N 33°21' W 118°19'0 0.1
2017-Sep-12 17:15N 33°21' W 118°19'0 0.1
2017-Sep-12 16:25N 33°21' W 118°19'0 0.0
2017-Sep-12 00:06N 33°21' W 118°19'0 0.1
2017-Sep-12 00:00N 33°21' W 118°19'0 0.6
2017-Sep-11 23:30N 33°21' W 118°19'0 0.7
2017-Sep-11 23:00N 33°21' W 118°19'0 0.3
2017-Sep-11 22:30N 33°21' W 118°19'0 0.3
2017-Sep-11 22:00N 33°21' W 118°19'0 0.0
2017-Sep-11 21:30N 33°21' W 118°19'0 0.0
2017-Sep-11 21:00N 33°21' W 118°19'0 0.8
2017-Sep-11 20:30N 33°21' W 118°19'0 0.9
2017-Sep-11 20:01N 33°21' W 118°19'0 0.0
2017-Sep-11 19:30N 33°21' W 118°19'0 0.8
2017-Sep-11 19:00N 33°21' W 118°19'0 0.6
2017-Sep-11 18:30N 33°21' W 118°19'0 0.6
2017-Sep-11 18:00N 33°21' W 118°19'0 0.0
2017-Sep-11 17:27N 33°21' W 118°19'0 0.9
2017-Sep-11 17:00N 33°21' W 118°19'0 0.6
2017-Sep-11 16:30N 33°21' W 118°19'4 8.6
2017-Sep-11 16:01N 33°25' W 118°18'713.1
2017-Sep-11 15:30N 33°32' W 118°17'713.2
2017-Sep-11 15:00N 33°38' W 118°16'611.2
2017-Sep-11 14:30N 33°44' W 118°16'3 5.2
2017-Sep-11 14:01N 33°46' W 118°15'0 0.0
2017-Sep-10 15:00N 33°46' W 118°15'  
Track history (hours):
 
Tides and Currents Weather Stations Pressure Air Temp Water Temp Dewpoint Dewpoint Depression Visibility Wind Speed Wind Dir Waves Ship Positions

Catalina Spirit

Owner: Catalina Classic Cruises, Inc, San Diego, CA. More information available from US FCC via Universal Licensing System and Coast Guard Vessel Documentation Center.

Last reported at 2017-Sep-20 01:45 UTC. Time now 2017-Sep-21 12:11 UTC.
Position N 33°46' W 118°15'.

Length 23 m.

Type: Passenger vessel. MMSI: 366889830.

Date/timePositionNaut miles runAvg speedWind from/ knotsBaromVisibWave heightAir tempDewpointWater temp
2017-Sep-20 01:45N 33°46' W 118°15'1 3.9
2017-Sep-20 01:28N 33°45' W 118°16'3 5.8
2017-Sep-20 01:00N 33°43' W 118°15'22 5.9
2017-Sep-19 21:17N 33°21' W 118°19'0 0.0
2017-Sep-19 21:00N 33°21' W 118°19'0 0.1
2017-Sep-19 20:16N 33°21' W 118°19'0 0.6
2017-Sep-19 19:55N 33°21' W 118°19'0 0.1
2017-Sep-19 19:27N 33°21' W 118°19'0 0.3
2017-Sep-19 18:57N 33°21' W 118°19'0 0.2
2017-Sep-19 18:16N 33°21' W 118°19'0 0.1
2017-Sep-19 17:29N 33°21' W 118°19'0 0.0
2017-Sep-19 16:59N 33°21' W 118°19'0 0.1
2017-Sep-19 16:21N 33°21' W 118°19'1 0.3
2017-Sep-19 14:43N 33°21' W 118°20'0 0.0
2017-Sep-19 14:04N 33°21' W 118°20'0 0.1
2017-Sep-19 13:57N 33°21' W 118°20'0 0.0
2017-Sep-19 12:32N 33°21' W 118°20'0 0.0
2017-Sep-19 12:25N 33°21' W 118°20'0 0.0
2017-Sep-19 11:56N 33°21' W 118°20'0 0.0
2017-Sep-19 11:29N 33°21' W 118°20'0 0.0
2017-Sep-19 10:52N 33°21' W 118°20'0 0.0
2017-Sep-19 10:01N 33°21' W 118°20'0 0.1
2017-Sep-19 09:55N 33°21' W 118°20'0 0.0
2017-Sep-19 09:24N 33°21' W 118°20'0 0.0
2017-Sep-19 08:35N 33°21' W 118°20'0 0.0
2017-Sep-19 08:15N 33°21' W 118°20'0 0.0
2017-Sep-19 07:53N 33°21' W 118°20'0 0.0
2017-Sep-19 07:19N 33°21' W 118°20'0 0.0
2017-Sep-19 06:56N 33°21' W 118°20'0 0.0
2017-Sep-19 06:30N 33°21' W 118°20'0 0.0
2017-Sep-19 06:00N 33°21' W 118°20'0 0.0
2017-Sep-19 03:34N 33°21' W 118°20'0 0.0
2017-Sep-19 03:28N 33°21' W 118°20'0 0.0
2017-Sep-19 02:48N 33°21' W 118°20'0 0.0
2017-Sep-19 02:25N 33°21' W 118°20'0 0.0
2017-Sep-19 01:57N 33°21' W 118°20'0 0.0
2017-Sep-19 01:26N 33°21' W 118°20'0 0.0
2017-Sep-19 00:55N 33°21' W 118°20'0 0.0
2017-Sep-18 23:51N 33°21' W 118°20'1 1.0
2017-Sep-18 23:21N 33°21' W 118°19'0 0.2
2017-Sep-18 22:46N 33°21' W 118°19'0 0.2
2017-Sep-18 21:59N 33°21' W 118°19'0 0.9
2017-Sep-18 21:28N 33°21' W 118°19'1 1.0
2017-Sep-18 20:56N 33°21' W 118°19'0 0.3
2017-Sep-18 20:20N 33°21' W 118°19'0 0.0
2017-Sep-18 19:24N 33°21' W 118°19'0 0.4
2017-Sep-18 18:51N 33°21' W 118°19'0 0.0
2017-Sep-18 17:55N 33°21' W 118°19'0 0.0
2017-Sep-18 17:24N 33°21' W 118°19'0 0.1
2017-Sep-18 16:46N 33°21' W 118°19'16 9.1
2017-Sep-18 15:04N 33°36' W 118°16'114.8
2017-Sep-18 14:59N 33°38' W 118°16'711.7
2017-Sep-18 14:23N 33°44' W 118°17'2 5.4
2017-Sep-18 14:00N 33°46' W 118°15'  
2017-Sep-13 01:09N 33°42' W 118°15'213.6
2017-Sep-13 01:00N 33°40' W 118°15'814.0
2017-Sep-13 00:24N 33°32' W 118°17'513.6
2017-Sep-13 00:00N 33°26' W 118°18'6 3.1
2017-Sep-12 22:08N 33°21' W 118°19'0 0.4
2017-Sep-12 22:01N 33°21' W 118°19'0 0.3
2017-Sep-12 21:13N 33°21' W 118°19'0 0.9
2017-Sep-12 20:54N 33°21' W 118°19'0 0.5
2017-Sep-12 20:15N 33°21' W 118°19'0 1.0
2017-Sep-12 19:58N 33°21' W 118°19'0 0.8
2017-Sep-12 19:29N 33°21' W 118°19'0 0.8
2017-Sep-12 18:57N 33°21' W 118°19'0 0.3
2017-Sep-12 18:29N 33°21' W 118°19'0 0.0
2017-Sep-12 17:58N 33°21' W 118°19'0 0.1
2017-Sep-12 17:15N 33°21' W 118°19'0 0.1
2017-Sep-12 16:25N 33°21' W 118°19'0 0.0
2017-Sep-12 00:06N 33°21' W 118°19'0 0.1
2017-Sep-12 00:00N 33°21' W 118°19'0 0.6
2017-Sep-11 23:30N 33°21' W 118°19'0 0.7
2017-Sep-11 23:00N 33°21' W 118°19'0 0.3
2017-Sep-11 22:30N 33°21' W 118°19'0 0.3
2017-Sep-11 22:00N 33°21' W 118°19'0 0.0
2017-Sep-11 21:30N 33°21' W 118°19'0 0.0
2017-Sep-11 21:00N 33°21' W 118°19'0 0.8
2017-Sep-11 20:30N 33°21' W 118°19'0 0.9
2017-Sep-11 20:01N 33°21' W 118°19'0 0.0
2017-Sep-11 19:30N 33°21' W 118°19'0 0.8
2017-Sep-11 19:00N 33°21' W 118°19'0 0.6
2017-Sep-11 18:30N 33°21' W 118°19'0 0.6
2017-Sep-11 18:00N 33°21' W 118°19'0 0.0
2017-Sep-11 17:27N 33°21' W 118°19'0 0.9
2017-Sep-11 17:00N 33°21' W 118°19'0 0.6
2017-Sep-11 16:30N 33°21' W 118°19'4 8.6
2017-Sep-11 16:01N 33°25' W 118°18'713.1
2017-Sep-11 15:30N 33°32' W 118°17'713.2
2017-Sep-11 15:00N 33°38' W 118°16'611.2
2017-Sep-11 14:30N 33°44' W 118°16'3 5.2
2017-Sep-11 14:01N 33°46' W 118°15'0 0.0
2017-Sep-10 15:00N 33°46' W 118°15'  

Dump ship's entire track history